Tara — XUAB3 — position and weather

sailwx.info

Track history (hours):
 
Tides and Currents Weather Stations Pressure Air Temp Water Temp Dewpoint Dewpoint Depression Visibility Wind Speed Wind Dir Waves Ship Positions

Tara

Last reported at 2015-Dec-09 15:32 UTC. Time now 2016-Feb-09 15:57 UTC.
Position N 34°32' E 033°20'.
Warning: this ship's position is months out of date.

Length 82 m; draft 7.4 m.

Type: Ship. MMSI: 515410000.

Date/timePositionNaut miles runAvg speedWind from/ knotsBaromVisibWave heightAir tempDewpointWater temp
2015-Dec-09 15:32N 34°32' E 033°20'9 9.5
2015-Dec-09 14:33N 34°30' E 033°08'10 9.6
2015-Dec-09 13:33N 34°30' E 032°57'9 9.0
2015-Dec-09 12:31N 34°31' E 032°46'  
2015-Dec-01 19:09N 40°57' E 028°55'0 0.3
2015-Dec-01 18:24N 40°57' E 028°55'0 0.0
2015-Dec-01 17:18N 40°57' E 028°55'0 0.0
2015-Dec-01 13:31N 40°57' E 028°55'1 1.4
2015-Dec-01 12:32N 40°57' E 028°57'10 9.6
2015-Dec-01 11:32N 40°48' E 028°51'25 6.3
2015-Dec-01 07:32N 40°25' E 029°05'0 0.0
2015-Dec-01 06:20N 40°25' E 029°05'0 0.0
2015-Dec-01 05:26N 40°25' E 029°05'0 0.0
2015-Dec-01 04:16N 40°25' E 029°05'0 0.0
2015-Dec-01 03:17N 40°25' E 029°05'0 0.0
2015-Dec-01 02:29N 40°25' E 029°05'0 0.0
2015-Dec-01 01:23N 40°25' E 029°05'0 0.0
2015-Dec-01 00:29N 40°25' E 029°05'0 0.0
2015-Nov-30 23:30N 40°25' E 029°05'0 0.0
2015-Nov-30 22:25N 40°25' E 029°05'0 0.0
2015-Nov-30 21:31N 40°25' E 029°05'0 0.0
2015-Nov-30 20:26N 40°25' E 029°05'0 0.0
2015-Nov-30 19:32N 40°25' E 029°05'0 0.0
2015-Nov-30 18:33N 40°25' E 029°05'0 0.0
2015-Nov-30 17:28N 40°25' E 029°05'0 0.0
2015-Nov-30 16:29N 40°25' E 029°05'0 0.0
2015-Nov-30 15:29N 40°25' E 029°05'0 0.0
2015-Nov-30 14:33N 40°25' E 029°05'0 0.0
2015-Nov-30 13:27N 40°25' E 029°05'0 0.0
2015-Nov-30 12:28N 40°25' E 029°05'0 0.0
2015-Nov-30 11:29N 40°25' E 029°05'0 0.0
2015-Nov-30 10:29N 40°25' E 029°05'0 0.0
2015-Nov-30 09:30N 40°25' E 029°05'0 0.0
2015-Nov-30 08:31N 40°25' E 029°05'0 0.0
2015-Nov-30 07:27N 40°25' E 029°05'0 0.0
2015-Nov-30 05:20N 40°25' E 029°05'0 0.0
2015-Nov-30 04:28N 40°25' E 029°05'0 0.0
2015-Nov-30 03:28N 40°25' E 029°05'0 0.0
2015-Nov-30 02:31N 40°25' E 029°05'0 0.0
2015-Nov-30 01:28N 40°25' E 029°05'0 0.0
2015-Nov-30 00:16N 40°25' E 029°05'0 0.0
2015-Nov-29 23:29N 40°25' E 029°05'0 0.0
2015-Nov-29 22:32N 40°25' E 029°05'0 0.0
2015-Nov-29 21:32N 40°25' E 029°05'0 0.0
2015-Nov-29 20:27N 40°25' E 029°05'0 0.0
2015-Nov-29 19:28N 40°25' E 029°05'0 0.0
2015-Nov-29 18:31N 40°25' E 029°05'0 0.0
2015-Nov-29 17:26N 40°25' E 029°05'0 0.0
2015-Nov-29 16:16N 40°25' E 029°05'0 0.0
2015-Nov-29 15:34N 40°25' E 029°05'  
Track history (hours):
 
Tides and Currents Weather Stations Pressure Air Temp Water Temp Dewpoint Dewpoint Depression Visibility Wind Speed Wind Dir Waves Ship Positions

Tara

Last reported at 2015-Dec-09 15:32 UTC. Time now 2016-Feb-09 15:57 UTC.
Position N 34°32' E 033°20'.
Warning: this ship's position is months out of date.

Length 82 m; draft 7.4 m.

Type: Ship. MMSI: 515410000.

Date/timePositionNaut miles runAvg speedWind from/ knotsBaromVisibWave heightAir tempDewpointWater temp
2015-Dec-09 15:32N 34°32' E 033°20'9 9.5
2015-Dec-09 14:33N 34°30' E 033°08'10 9.6
2015-Dec-09 13:33N 34°30' E 032°57'9 9.0
2015-Dec-09 12:31N 34°31' E 032°46'  
2015-Dec-01 19:09N 40°57' E 028°55'0 0.3
2015-Dec-01 18:24N 40°57' E 028°55'0 0.0
2015-Dec-01 17:18N 40°57' E 028°55'0 0.0
2015-Dec-01 13:31N 40°57' E 028°55'1 1.4
2015-Dec-01 12:32N 40°57' E 028°57'10 9.6
2015-Dec-01 11:32N 40°48' E 028°51'25 6.3
2015-Dec-01 07:32N 40°25' E 029°05'0 0.0
2015-Dec-01 06:20N 40°25' E 029°05'0 0.0
2015-Dec-01 05:26N 40°25' E 029°05'0 0.0
2015-Dec-01 04:16N 40°25' E 029°05'0 0.0
2015-Dec-01 03:17N 40°25' E 029°05'0 0.0
2015-Dec-01 02:29N 40°25' E 029°05'0 0.0
2015-Dec-01 01:23N 40°25' E 029°05'0 0.0
2015-Dec-01 00:29N 40°25' E 029°05'0 0.0
2015-Nov-30 23:30N 40°25' E 029°05'0 0.0
2015-Nov-30 22:25N 40°25' E 029°05'0 0.0
2015-Nov-30 21:31N 40°25' E 029°05'0 0.0
2015-Nov-30 20:26N 40°25' E 029°05'0 0.0
2015-Nov-30 19:32N 40°25' E 029°05'0 0.0
2015-Nov-30 18:33N 40°25' E 029°05'0 0.0
2015-Nov-30 17:28N 40°25' E 029°05'0 0.0
2015-Nov-30 16:29N 40°25' E 029°05'0 0.0
2015-Nov-30 15:29N 40°25' E 029°05'0 0.0
2015-Nov-30 14:33N 40°25' E 029°05'0 0.0
2015-Nov-30 13:27N 40°25' E 029°05'0 0.0
2015-Nov-30 12:28N 40°25' E 029°05'0 0.0
2015-Nov-30 11:29N 40°25' E 029°05'0 0.0
2015-Nov-30 10:29N 40°25' E 029°05'0 0.0
2015-Nov-30 09:30N 40°25' E 029°05'0 0.0
2015-Nov-30 08:31N 40°25' E 029°05'0 0.0
2015-Nov-30 07:27N 40°25' E 029°05'0 0.0
2015-Nov-30 05:20N 40°25' E 029°05'0 0.0
2015-Nov-30 04:28N 40°25' E 029°05'0 0.0
2015-Nov-30 03:28N 40°25' E 029°05'0 0.0
2015-Nov-30 02:31N 40°25' E 029°05'0 0.0
2015-Nov-30 01:28N 40°25' E 029°05'0 0.0
2015-Nov-30 00:16N 40°25' E 029°05'0 0.0
2015-Nov-29 23:29N 40°25' E 029°05'0 0.0
2015-Nov-29 22:32N 40°25' E 029°05'0 0.0
2015-Nov-29 21:32N 40°25' E 029°05'0 0.0
2015-Nov-29 20:27N 40°25' E 029°05'0 0.0
2015-Nov-29 19:28N 40°25' E 029°05'0 0.0
2015-Nov-29 18:31N 40°25' E 029°05'0 0.0
2015-Nov-29 17:26N 40°25' E 029°05'0 0.0
2015-Nov-29 16:16N 40°25' E 029°05'0 0.0
2015-Nov-29 15:34N 40°25' E 029°05'  

Dump ship's entire track history